sensor_id;sensor_type;location;lat;lon;timestamp;temperature;humidity
21033;DHT22;10675;47.976;7.824;2023-03-31T00:01:49;14.90;83.10
21033;DHT22;10675;47.976;7.824;2023-03-31T00:04:17;14.90;82.40
21033;DHT22;10675;47.976;7.824;2023-03-31T00:06:42;14.90;82.90
21033;DHT22;10675;47.976;7.824;2023-03-31T00:09:13;14.90;82.70
21033;DHT22;10675;47.976;7.824;2023-03-31T00:11:43;14.90;82.50
21033;DHT22;10675;47.976;7.824;2023-03-31T00:14:09;15.00;82.80
21033;DHT22;10675;47.976;7.824;2023-03-31T00:16:36;15.00;82.70
21033;DHT22;10675;47.976;7.824;2023-03-31T00:19:02;14.90;83.00
21033;DHT22;10675;47.976;7.824;2023-03-31T00:21:29;14.80;83.80
21033;DHT22;10675;47.976;7.824;2023-03-31T00:24:09;14.80;84.00
21033;DHT22;10675;47.976;7.824;2023-03-31T00:26:36;14.80;83.80
21033;DHT22;10675;47.976;7.824;2023-03-31T00:29:04;14.90;83.50
21033;DHT22;10675;47.976;7.824;2023-03-31T00:31:30;14.90;82.90
21033;DHT22;10675;47.976;7.824;2023-03-31T00:33:56;14.90;83.30
21033;DHT22;10675;47.976;7.824;2023-03-31T00:36:23;14.90;83.40
21033;DHT22;10675;47.976;7.824;2023-03-31T00:38:56;14.90;83.90
21033;DHT22;10675;47.976;7.824;2023-03-31T00:41:28;15.30;84.40
21033;DHT22;10675;47.976;7.824;2023-03-31T00:44:04;14.80;84.80
21033;DHT22;10675;47.976;7.824;2023-03-31T00:46:54;14.70;85.80
21033;DHT22;10675;47.976;7.824;2023-03-31T00:49:26;14.50;85.80
21033;DHT22;10675;47.976;7.824;2023-03-31T00:51:56;14.40;87.10
21033;DHT22;10675;47.976;7.824;2023-03-31T00:54:25;14.30;88.10
21033;DHT22;10675;47.976;7.824;2023-03-31T00:56:52;14.20;89.70
21033;DHT22;10675;47.976;7.824;2023-03-31T00:59:21;14.00;89.80
21033;DHT22;10675;47.976;7.824;2023-03-31T01:01:48;14.00;90.40
21033;DHT22;10675;47.976;7.824;2023-03-31T01:04:15;13.90;90.80
21033;DHT22;10675;47.976;7.824;2023-03-31T01:06:55;13.90;91.50
21033;DHT22;10675;47.976;7.824;2023-03-31T01:09:26;13.80;91.70
21033;DHT22;10675;47.976;7.824;2023-03-31T01:11:55;13.70;91.70
21033;DHT22;10675;47.976;7.824;2023-03-31T01:14:21;13.70;92.00
21033;DHT22;10675;47.976;7.824;2023-03-31T01:16:46;13.70;92.20
21033;DHT22;10675;47.976;7.824;2023-03-31T01:22:21;13.60;92.70
21033;DHT22;10675;47.976;7.824;2023-03-31T01:25:22;13.50;93.30
21033;DHT22;10675;47.976;7.824;2023-03-31T01:28:23;13.50;93.70
21033;DHT22;10675;47.976;7.824;2023-03-31T01:31:32;13.40;93.90
21033;DHT22;10675;47.976;7.824;2023-03-31T01:43:17;13.30;95.70
21033;DHT22;10675;47.976;7.824;2023-03-31T01:51:38;13.00;97.80
21033;DHT22;10675;47.976;7.824;2023-03-31T01:54:20;13.00;98.30
21033;DHT22;10675;47.976;7.824;2023-03-31T01:57:13;12.90;98.40
21033;DHT22;10675;47.976;7.824;2023-03-31T02:02:35;12.80;99.20
21033;DHT22;10675;47.976;7.824;2023-03-31T02:05:08;12.80;99.60
21033;DHT22;10675;47.976;7.824;2023-03-31T02:07:55;12.80;99.70
21033;DHT22;10675;47.976;7.824;2023-03-31T02:10:23;12.70;99.90
21033;DHT22;10675;47.976;7.824;2023-03-31T02:12:50;12.70;99.90
21033;DHT22;10675;47.976;7.824;2023-03-31T02:15:24;12.70;99.90
21033;DHT22;10675;47.976;7.824;2023-03-31T02:17:54;12.70;99.90
21033;DHT22;10675;47.976;7.824;2023-03-31T02:20:21;12.70;99.90
21033;DHT22;10675;47.976;7.824;2023-03-31T02:22:54;12.60;99.90
21033;DHT22;10675;47.976;7.824;2023-03-31T02:25:27;12.60;99.90
21033;DHT22;10675;47.976;7.824;2023-03-31T02:28:06;12.50;99.90
21033;DHT22;10675;47.976;7.824;2023-03-31T02:30:45;12.50;99.90
21033;DHT22;10675;47.976;7.824;2023-03-31T02:33:13;12.50;99.90
21033;DHT22;10675;47.976;7.824;2023-03-31T02:35:39;12.50;99.90
21033;DHT22;10675;47.976;7.824;2023-03-31T02:38:05;12.50;99.90
21033;DHT22;10675;47.976;7.824;2023-03-31T02:40:31;12.50;99.90
21033;DHT22;10675;47.976;7.824;2023-03-31T02:42:56;12.50;99.90
21033;DHT22;10675;47.976;7.824;2023-03-31T02:48:24;12.50;99.90
21033;DHT22;10675;47.976;7.824;2023-03-31T02:53:42;12.60;99.90
21033;DHT22;10675;47.976;7.824;2023-03-31T02:59:28;12.50;99.90
21033;DHT22;10675;47.976;7.824;2023-03-31T03:12:24;12.60;99.90
21033;DHT22;10675;47.976;7.824;2023-03-31T03:20:00;12.80;99.90
21033;DHT22;10675;47.976;7.824;2023-03-31T03:22:26;12.80;99.70
21033;DHT22;10675;47.976;7.824;2023-03-31T03:24:52;12.90;99.50
21033;DHT22;10675;47.976;7.824;2023-03-31T03:27:19;12.90;99.90
21033;DHT22;10675;47.976;7.824;2023-03-31T03:29:47;12.90;99.90
21033;DHT22;10675;47.976;7.824;2023-03-31T03:32:12;12.80;99.90
21033;DHT22;10675;47.976;7.824;2023-03-31T03:34:38;12.80;99.90
21033;DHT22;10675;47.976;7.824;2023-03-31T03:37:04;12.80;99.90
21033;DHT22;10675;47.976;7.824;2023-03-31T03:39:30;12.80;99.90
21033;DHT22;10675;47.976;7.824;2023-03-31T03:41:56;12.80;99.90
21033;DHT22;10675;47.976;7.824;2023-03-31T03:44:21;12.80;99.90
21033;DHT22;10675;47.976;7.824;2023-03-31T03:46:47;12.70;99.90
21033;DHT22;10675;47.976;7.824;2023-03-31T03:49:12;12.70;99.90
21033;DHT22;10675;47.976;7.824;2023-03-31T03:51:38;12.70;99.90
21033;DHT22;10675;47.976;7.824;2023-03-31T03:54:03;12.70;99.90
21033;DHT22;10675;47.976;7.824;2023-03-31T03:56:29;12.80;99.90
21033;DHT22;10675;47.976;7.824;2023-03-31T03:58:55;12.80;98.60
21033;DHT22;10675;47.976;7.824;2023-03-31T04:01:21;13.10;95.20
21033;DHT22;10675;47.976;7.824;2023-03-31T04:03:47;13.40;94.20
21033;DHT22;10675;47.976;7.824;2023-03-31T04:06:13;13.80;93.00
21033;DHT22;10675;47.976;7.824;2023-03-31T04:08:38;13.90;92.00
21033;DHT22;10675;47.976;7.824;2023-03-31T04:11:14;14.00;91.90
21033;DHT22;10675;47.976;7.824;2023-03-31T04:13:42;14.00;91.80
21033;DHT22;10675;47.976;7.824;2023-03-31T04:16:07;13.90;92.10
21033;DHT22;10675;47.976;7.824;2023-03-31T04:18:33;13.90;91.50
21033;DHT22;10675;47.976;7.824;2023-03-31T04:21:02;14.30;88.90
21033;DHT22;10675;47.976;7.824;2023-03-31T04:23:32;14.90;85.10
21033;DHT22;10675;47.976;7.824;2023-03-31T04:25:57;15.20;82.50
21033;DHT22;10675;47.976;7.824;2023-03-31T04:28:23;15.40;80.70
21033;DHT22;10675;47.976;7.824;2023-03-31T04:30:53;15.60;80.60
21033;DHT22;10675;47.976;7.824;2023-03-31T04:33:19;15.50;82.00
21033;DHT22;10675;47.976;7.824;2023-03-31T04:35:45;15.10;84.90
21033;DHT22;10675;47.976;7.824;2023-03-31T04:38:16;14.60;90.00
21033;DHT22;10675;47.976;7.824;2023-03-31T04:40:49;14.70;90.30
21033;DHT22;10675;47.976;7.824;2023-03-31T04:43:16;14.90;89.20
21033;DHT22;10675;47.976;7.824;2023-03-31T04:45:41;14.90;89.30
21033;DHT22;10675;47.976;7.824;2023-03-31T04:48:07;14.50;90.60
21033;DHT22;10675;47.976;7.824;2023-03-31T04:50:33;14.30;91.10
21033;DHT22;10675;47.976;7.824;2023-03-31T04:52:59;14.20;92.50
21033;DHT22;10675;47.976;7.824;2023-03-31T04:55:24;14.00;93.70
21033;DHT22;10675;47.976;7.824;2023-03-31T04:57:50;13.60;96.20
21033;DHT22;10675;47.976;7.824;2023-03-31T05:00:17;13.30;98.50
21033;DHT22;10675;47.976;7.824;2023-03-31T05:02:43;13.10;99.90
21033;DHT22;10675;47.976;7.824;2023-03-31T05:05:09;13.20;99.90
21033;DHT22;10675;47.976;7.824;2023-03-31T05:07:35;13.10;99.90
21033;DHT22;10675;47.976;7.824;2023-03-31T05:10:00;13.10;99.90
21033;DHT22;10675;47.976;7.824;2023-03-31T05:12:26;13.00;99.90
21033;DHT22;10675;47.976;7.824;2023-03-31T05:14:52;12.70;99.90
21033;DHT22;10675;47.976;7.824;2023-03-31T05:17:17;12.50;99.90
21033;DHT22;10675;47.976;7.824;2023-03-31T05:19:43;12.40;99.90
21033;DHT22;10675;47.976;7.824;2023-03-31T05:22:09;12.30;99.90
21033;DHT22;10675;47.976;7.824;2023-03-31T05:24:34;12.30;99.90
21033;DHT22;10675;47.976;7.824;2023-03-31T05:27:00;12.40;99.90
21033;DHT22;10675;47.976;7.824;2023-03-31T05:29:25;12.40;99.90
21033;DHT22;10675;47.976;7.824;2023-03-31T05:31:51;12.40;99.90
21033;DHT22;10675;47.976;7.824;2023-03-31T05:34:18;12.40;99.90
21033;DHT22;10675;47.976;7.824;2023-03-31T05:36:44;12.30;99.90
21033;DHT22;10675;47.976;7.824;2023-03-31T05:39:12;12.30;99.90
21033;DHT22;10675;47.976;7.824;2023-03-31T05:41:38;12.30;99.90
21033;DHT22;10675;47.976;7.824;2023-03-31T05:44:03;12.20;99.90
21033;DHT22;10675;47.976;7.824;2023-03-31T05:46:29;12.20;99.90
21033;DHT22;10675;47.976;7.824;2023-03-31T05:48:55;12.20;99.90
21033;DHT22;10675;47.976;7.824;2023-03-31T05:51:21;12.10;99.90
21033;DHT22;10675;47.976;7.824;2023-03-31T05:53:47;12.10;99.90
21033;DHT22;10675;47.976;7.824;2023-03-31T05:56:12;12.10;99.90
21033;DHT22;10675;47.976;7.824;2023-03-31T05:58:38;12.10;99.90
21033;DHT22;10675;47.976;7.824;2023-03-31T06:01:06;12.30;99.90
21033;DHT22;10675;47.976;7.824;2023-03-31T06:03:33;12.30;99.90
21033;DHT22;10675;47.976;7.824;2023-03-31T06:05:59;12.40;99.90
21033;DHT22;10675;47.976;7.824;2023-03-31T06:08:27;12.00;99.90
21033;DHT22;10675;47.976;7.824;2023-03-31T06:10:52;11.50;99.90
21033;DHT22;10675;47.976;7.824;2023-03-31T06:13:18;11.30;99.90
21033;DHT22;10675;47.976;7.824;2023-03-31T06:15:52;11.10;99.90
21033;DHT22;10675;47.976;7.824;2023-03-31T06:18:17;10.90;99.90
21033;DHT22;10675;47.976;7.824;2023-03-31T06:20:43;10.80;99.90
21033;DHT22;10675;47.976;7.824;2023-03-31T06:23:08;10.80;99.90
21033;DHT22;10675;47.976;7.824;2023-03-31T06:25:37;10.90;99.90
21033;DHT22;10675;47.976;7.824;2023-03-31T06:28:02;10.90;99.90
21033;DHT22;10675;47.976;7.824;2023-03-31T06:30:28;10.80;99.90
21033;DHT22;10675;47.976;7.824;2023-03-31T06:32:53;10.90;99.90
21033;DHT22;10675;47.976;7.824;2023-03-31T06:35:19;10.90;99.90
21033;DHT22;10675;47.976;7.824;2023-03-31T06:37:44;10.90;99.90
21033;DHT22;10675;47.976;7.824;2023-03-31T06:40:11;10.80;99.90
21033;DHT22;10675;47.976;7.824;2023-03-31T06:42:37;10.80;99.90
21033;DHT22;10675;47.976;7.824;2023-03-31T06:45:03;10.80;99.90
21033;DHT22;10675;47.976;7.824;2023-03-31T06:47:29;10.90;99.90
21033;DHT22;10675;47.976;7.824;2023-03-31T06:49:54;10.90;99.90
21033;DHT22;10675;47.976;7.824;2023-03-31T06:52:20;10.90;99.90
21033;DHT22;10675;47.976;7.824;2023-03-31T06:54:45;10.90;99.90
21033;DHT22;10675;47.976;7.824;2023-03-31T06:57:11;11.00;99.90
21033;DHT22;10675;47.976;7.824;2023-03-31T06:59:37;10.80;99.90
21033;DHT22;10675;47.976;7.824;2023-03-31T07:02:03;10.70;99.90
21033;DHT22;10675;47.976;7.824;2023-03-31T07:04:28;10.80;99.90
21033;DHT22;10675;47.976;7.824;2023-03-31T07:06:54;10.90;99.90
21033;DHT22;10675;47.976;7.824;2023-03-31T07:09:20;11.20;99.90
21033;DHT22;10675;47.976;7.824;2023-03-31T07:11:48;11.30;99.90
21033;DHT22;10675;47.976;7.824;2023-03-31T07:14:13;11.50;99.90
21033;DHT22;10675;47.976;7.824;2023-03-31T07:16:39;11.70;99.90
21033;DHT22;10675;47.976;7.824;2023-03-31T07:19:06;11.80;99.90
21033;DHT22;10675;47.976;7.824;2023-03-31T07:21:32;12.00;99.90
21033;DHT22;10675;47.976;7.824;2023-03-31T07:23:58;12.10;99.90
21033;DHT22;10675;47.976;7.824;2023-03-31T07:26:23;12.30;99.90
21033;DHT22;10675;47.976;7.824;2023-03-31T07:28:49;12.40;99.90
21033;DHT22;10675;47.976;7.824;2023-03-31T07:31:16;12.60;99.90
21033;DHT22;10675;47.976;7.824;2023-03-31T07:33:41;12.60;99.90
21033;DHT22;10675;47.976;7.824;2023-03-31T07:36:08;12.70;99.90
21033;DHT22;10675;47.976;7.824;2023-03-31T07:38:34;12.80;99.90
21033;DHT22;10675;47.976;7.824;2023-03-31T07:40:59;12.90;99.90
21033;DHT22;10675;47.976;7.824;2023-03-31T07:43:25;13.00;99.90
21033;DHT22;10675;47.976;7.824;2023-03-31T07:45:51;12.90;99.90
21033;DHT22;10675;47.976;7.824;2023-03-31T07:48:16;13.10;99.90
21033;DHT22;10675;47.976;7.824;2023-03-31T07:50:42;13.00;99.90
21033;DHT22;10675;47.976;7.824;2023-03-31T07:53:07;13.20;99.90
21033;DHT22;10675;47.976;7.824;2023-03-31T07:55:33;13.30;99.90
21033;DHT22;10675;47.976;7.824;2023-03-31T07:57:59;13.40;99.90
21033;DHT22;10675;47.976;7.824;2023-03-31T08:00:24;13.40;99.90
21033;DHT22;10675;47.976;7.824;2023-03-31T08:02:50;13.50;99.90
21033;DHT22;10675;47.976;7.824;2023-03-31T08:05:17;13.60;99.90
21033;DHT22;10675;47.976;7.824;2023-03-31T08:07:45;13.50;99.90
21033;DHT22;10675;47.976;7.824;2023-03-31T08:10:15;13.30;99.90
21033;DHT22;10675;47.976;7.824;2023-03-31T08:12:41;13.40;99.90
21033;DHT22;10675;47.976;7.824;2023-03-31T08:15:07;13.50;99.90
21033;DHT22;10675;47.976;7.824;2023-03-31T08:17:33;13.50;99.90
21033;DHT22;10675;47.976;7.824;2023-03-31T08:19:58;13.80;99.90
21033;DHT22;10675;47.976;7.824;2023-03-31T08:22:24;14.00;99.90
21033;DHT22;10675;47.976;7.824;2023-03-31T08:24:49;14.20;99.90
21033;DHT22;10675;47.976;7.824;2023-03-31T08:27:15;14.30;99.90
21033;DHT22;10675;47.976;7.824;2023-03-31T08:29:41;14.30;99.90
21033;DHT22;10675;47.976;7.824;2023-03-31T08:32:06;14.30;99.90
21033;DHT22;10675;47.976;7.824;2023-03-31T08:34:32;14.40;99.90
21033;DHT22;10675;47.976;7.824;2023-03-31T08:36:58;14.20;99.90
21033;DHT22;10675;47.976;7.824;2023-03-31T08:39:23;14.20;99.90
21033;DHT22;10675;47.976;7.824;2023-03-31T08:42:09;14.50;99.90
21033;DHT22;10675;47.976;7.824;2023-03-31T08:44:41;14.70;99.90
21033;DHT22;10675;47.976;7.824;2023-03-31T08:47:14;14.50;99.90
21033;DHT22;10675;47.976;7.824;2023-03-31T08:49:52;14.70;99.90
21033;DHT22;10675;47.976;7.824;2023-03-31T08:52:23;14.80;99.90
21033;DHT22;10675;47.976;7.824;2023-03-31T08:54:54;15.10;99.90
21033;DHT22;10675;47.976;7.824;2023-03-31T08:57:24;15.20;99.90
21033;DHT22;10675;47.976;7.824;2023-03-31T08:59:51;15.00;99.90
21033;DHT22;10675;47.976;7.824;2023-03-31T09:07:59;14.90;98.10
21033;DHT22;10675;47.976;7.824;2023-03-31T09:10:38;14.80;99.00
21033;DHT22;10675;47.976;7.824;2023-03-31T09:16:01;14.70;98.90
21033;DHT22;10675;47.976;7.824;2023-03-31T09:18:32;14.70;98.50
21033;DHT22;10675;47.976;7.824;2023-03-31T09:23:54;14.70;98.00
21033;DHT22;10675;47.976;7.824;2023-03-31T09:26:44;14.90;97.00
21033;DHT22;10675;47.976;7.824;2023-03-31T09:32:16;14.50;96.40
21033;DHT22;10675;47.976;7.824;2023-03-31T09:34:44;14.50;96.90
21033;DHT22;10675;47.976;7.824;2023-03-31T09:37:11;14.50;98.00
21033;DHT22;10675;47.976;7.824;2023-03-31T09:39:37;14.60;97.50
21033;DHT22;10675;47.976;7.824;2023-03-31T09:42:03;14.60;96.90
21033;DHT22;10675;47.976;7.824;2023-03-31T09:44:38;14.80;95.70
21033;DHT22;10675;47.976;7.824;2023-03-31T09:47:08;14.80;94.60
21033;DHT22;10675;47.976;7.824;2023-03-31T09:49:36;14.70;94.70
21033;DHT22;10675;47.976;7.824;2023-03-31T09:52:31;14.80;94.00
21033;DHT22;10675;47.976;7.824;2023-03-31T09:54:59;14.80;92.40
21033;DHT22;10675;47.976;7.824;2023-03-31T09:57:34;15.00;91.20
21033;DHT22;10675;47.976;7.824;2023-03-31T10:00:24;15.10;90.90
21033;DHT22;10675;47.976;7.824;2023-03-31T10:02:54;15.20;89.70
21033;DHT22;10675;47.976;7.824;2023-03-31T10:05:27;15.30;87.00
21033;DHT22;10675;47.976;7.824;2023-03-31T10:08:13;15.40;85.00
21033;DHT22;10675;47.976;7.824;2023-03-31T10:10:49;15.60;85.90
21033;DHT22;10675;47.976;7.824;2023-03-31T10:13:18;15.60;81.10
21033;DHT22;10675;47.976;7.824;2023-03-31T10:15:44;15.40;79.30
21033;DHT22;10675;47.976;7.824;2023-03-31T10:18:14;15.30;78.40
21033;DHT22;10675;47.976;7.824;2023-03-31T10:20:51;15.40;81.10
21033;DHT22;10675;47.976;7.824;2023-03-31T10:23:31;15.40;79.90
21033;DHT22;10675;47.976;7.824;2023-03-31T10:25:58;15.40;78.80
21033;DHT22;10675;47.976;7.824;2023-03-31T10:28:25;15.20;75.50
21033;DHT22;10675;47.976;7.824;2023-03-31T10:30:53;15.20;76.50
21033;DHT22;10675;47.976;7.824;2023-03-31T10:33:23;15.20;75.50
21033;DHT22;10675;47.976;7.824;2023-03-31T10:35:55;15.30;76.30
21033;DHT22;10675;47.976;7.824;2023-03-31T10:38:28;15.40;75.50
21033;DHT22;10675;47.976;7.824;2023-03-31T10:40:56;15.50;75.90
21033;DHT22;10675;47.976;7.824;2023-03-31T10:43:41;15.50;77.00
21033;DHT22;10675;47.976;7.824;2023-03-31T10:46:08;15.50;78.60
21033;DHT22;10675;47.976;7.824;2023-03-31T10:48:36;15.30;77.20
21033;DHT22;10675;47.976;7.824;2023-03-31T10:51:28;15.30;77.30
21033;DHT22;10675;47.976;7.824;2023-03-31T10:54:00;15.40;77.60
21033;DHT22;10675;47.976;7.824;2023-03-31T10:56:38;15.60;77.30
21033;DHT22;10675;47.976;7.824;2023-03-31T10:59:36;15.60;77.60
21033;DHT22;10675;47.976;7.824;2023-03-31T11:05:13;15.60;76.00
21033;DHT22;10675;47.976;7.824;2023-03-31T11:12:46;15.70;75.70
21033;DHT22;10675;47.976;7.824;2023-03-31T11:18:39;15.30;72.50
21033;DHT22;10675;47.976;7.824;2023-03-31T11:29:59;15.30;73.00
21033;DHT22;10675;47.976;7.824;2023-03-31T11:32:46;15.50;74.00
21033;DHT22;10675;47.976;7.824;2023-03-31T11:38:21;15.60;69.90
21033;DHT22;10675;47.976;7.824;2023-03-31T11:41:04;15.60;70.10
21033;DHT22;10675;47.976;7.824;2023-03-31T11:43:38;15.30;70.50
21033;DHT22;10675;47.976;7.824;2023-03-31T11:46:11;15.30;71.60
21033;DHT22;10675;47.976;7.824;2023-03-31T11:48:52;15.20;73.20
21033;DHT22;10675;47.976;7.824;2023-03-31T11:51:42;14.90;75.10
21033;DHT22;10675;47.976;7.824;2023-03-31T11:54:29;14.30;76.30
21033;DHT22;10675;47.976;7.824;2023-03-31T11:56:56;13.80;77.30
21033;DHT22;10675;47.976;7.824;2023-03-31T11:59:24;13.10;82.10
21033;DHT22;10675;47.976;7.824;2023-03-31T12:02:03;12.60;84.60
21033;DHT22;10675;47.976;7.824;2023-03-31T12:04:42;12.50;83.70
21033;DHT22;10675;47.976;7.824;2023-03-31T12:07:30;12.80;81.10
21033;DHT22;10675;47.976;7.824;2023-03-31T12:12:32;13.30;78.40
21033;DHT22;10675;47.976;7.824;2023-03-31T12:15:12;13.20;79.40
21033;DHT22;10675;47.976;7.824;2023-03-31T12:17:45;13.20;79.50
21033;DHT22;10675;47.976;7.824;2023-03-31T12:20:36;13.40;79.20
21033;DHT22;10675;47.976;7.824;2023-03-31T12:23:11;13.50;78.50
21033;DHT22;10675;47.976;7.824;2023-03-31T12:28:11;13.90;78.10
21033;DHT22;10675;47.976;7.824;2023-03-31T12:30:39;14.20;77.00
21033;DHT22;10675;47.976;7.824;2023-03-31T12:38:32;14.70;77.70
21033;DHT22;10675;47.976;7.824;2023-03-31T12:46:57;14.90;78.50
21033;DHT22;10675;47.976;7.824;2023-03-31T12:49:39;15.40;77.70
21033;DHT22;10675;47.976;7.824;2023-03-31T12:52:13;15.40;77.40
21033;DHT22;10675;47.976;7.824;2023-03-31T12:57:38;15.20;78.20
21033;DHT22;10675;47.976;7.824;2023-03-31T13:02:37;15.30;79.20
21033;DHT22;10675;47.976;7.824;2023-03-31T13:08:06;15.40;79.60
21033;DHT22;10675;47.976;7.824;2023-03-31T13:10:33;15.30;79.30
21033;DHT22;10675;47.976;7.824;2023-03-31T13:13:17;15.00;79.00
21033;DHT22;10675;47.976;7.824;2023-03-31T13:15:55;14.80;80.10
21033;DHT22;10675;47.976;7.824;2023-03-31T13:18:22;14.80;80.30
21033;DHT22;10675;47.976;7.824;2023-03-31T13:21:06;14.70;80.00
21033;DHT22;10675;47.976;7.824;2023-03-31T13:23:35;14.70;80.80
21033;DHT22;10675;47.976;7.824;2023-03-31T13:26:02;14.60;81.20
21033;DHT22;10675;47.976;7.824;2023-03-31T13:31:03;13.90;87.10
21033;DHT22;10675;47.976;7.824;2023-03-31T13:38:45;12.70;93.80
21033;DHT22;10675;47.976;7.824;2023-03-31T13:44:26;10.20;99.90
21033;DHT22;10675;47.976;7.824;2023-03-31T13:55:39;9.90;99.90
21033;DHT22;10675;47.976;7.824;2023-03-31T14:03:46;10.10;99.90
21033;DHT22;10675;47.976;7.824;2023-03-31T14:06:37;10.10;99.90
21033;DHT22;10675;47.976;7.824;2023-03-31T14:09:09;10.20;99.90
21033;DHT22;10675;47.976;7.824;2023-03-31T14:11:36;10.20;99.90
21033;DHT22;10675;47.976;7.824;2023-03-31T14:14:05;10.30;99.90
21033;DHT22;10675;47.976;7.824;2023-03-31T14:16:38;10.50;99.90
21033;DHT22;10675;47.976;7.824;2023-03-31T14:24:54;11.40;99.90
21033;DHT22;10675;47.976;7.824;2023-03-31T14:30:42;10.80;99.90
21033;DHT22;10675;47.976;7.824;2023-03-31T14:38:46;10.60;99.90
21033;DHT22;10675;47.976;7.824;2023-03-31T14:41:19;10.60;99.90
21033;DHT22;10675;47.976;7.824;2023-03-31T14:43:48;10.60;99.90
21033;DHT22;10675;47.976;7.824;2023-03-31T14:46:19;10.60;99.90
21033;DHT22;10675;47.976;7.824;2023-03-31T14:48:47;10.70;99.90
21033;DHT22;10675;47.976;7.824;2023-03-31T14:51:14;10.80;99.90
21033;DHT22;10675;47.976;7.824;2023-03-31T14:53:41;10.90;99.90
21033;DHT22;10675;47.976;7.824;2023-03-31T14:56:19;11.10;99.90
21033;DHT22;10675;47.976;7.824;2023-03-31T14:58:49;11.30;99.90
21033;DHT22;10675;47.976;7.824;2023-03-31T15:01:22;11.60;99.90
21033;DHT22;10675;47.976;7.824;2023-03-31T15:03:49;12.00;99.90
21033;DHT22;10675;47.976;7.824;2023-03-31T15:06:16;12.40;99.90
21033;DHT22;10675;47.976;7.824;2023-03-31T15:08:42;12.50;99.90
21033;DHT22;10675;47.976;7.824;2023-03-31T15:11:11;12.60;99.90
21033;DHT22;10675;47.976;7.824;2023-03-31T15:13:44;12.50;99.90
21033;DHT22;10675;47.976;7.824;2023-03-31T15:16:35;12.50;99.90
21033;DHT22;10675;47.976;7.824;2023-03-31T15:19:14;13.20;99.90
21033;DHT22;10675;47.976;7.824;2023-03-31T15:21:40;12.60;99.90
21033;DHT22;10675;47.976;7.824;2023-03-31T15:24:06;12.90;99.90
21033;DHT22;10675;47.976;7.824;2023-03-31T15:26:49;12.90;99.90
21033;DHT22;10675;47.976;7.824;2023-03-31T15:29:21;12.80;99.90
21033;DHT22;10675;47.976;7.824;2023-03-31T15:31:49;12.70;99.90
21033;DHT22;10675;47.976;7.824;2023-03-31T15:34:25;12.50;99.90
21033;DHT22;10675;47.976;7.824;2023-03-31T15:36:56;12.40;99.90
21033;DHT22;10675;47.976;7.824;2023-03-31T15:39:27;12.30;99.90
21033;DHT22;10675;47.976;7.824;2023-03-31T15:41:55;13.00;99.90
21033;DHT22;10675;47.976;7.824;2023-03-31T15:44:35;12.30;99.90
21033;DHT22;10675;47.976;7.824;2023-03-31T15:47:16;12.30;99.90
21033;DHT22;10675;47.976;7.824;2023-03-31T15:50:02;12.20;99.90
21033;DHT22;10675;47.976;7.824;2023-03-31T15:52:36;12.10;99.90
21033;DHT22;10675;47.976;7.824;2023-03-31T15:55:28;12.10;99.90
21033;DHT22;10675;47.976;7.824;2023-03-31T15:57:57;12.10;99.90
21033;DHT22;10675;47.976;7.824;2023-03-31T16:03:22;12.30;99.90
21033;DHT22;10675;47.976;7.824;2023-03-31T16:05:54;12.20;99.90
21033;DHT22;10675;47.976;7.824;2023-03-31T16:08:25;12.10;99.90
21033;DHT22;10675;47.976;7.824;2023-03-31T16:11:20;12.10;99.90
21033;DHT22;10675;47.976;7.824;2023-03-31T16:13:50;12.10;99.90
21033;DHT22;10675;47.976;7.824;2023-03-31T16:16:18;12.00;99.90
21033;DHT22;10675;47.976;7.824;2023-03-31T16:18:51;12.00;99.90
21033;DHT22;10675;47.976;7.824;2023-03-31T16:21:27;12.00;99.90
21033;DHT22;10675;47.976;7.824;2023-03-31T16:23:56;12.00;99.00
21033;DHT22;10675;47.976;7.824;2023-03-31T16:26:24;12.00;99.60
21033;DHT22;10675;47.976;7.824;2023-03-31T16:28:53;12.00;99.40
21033;DHT22;10675;47.976;7.824;2023-03-31T16:31:36;11.30;98.70
21033;DHT22;10675;47.976;7.824;2023-03-31T16:34:08;12.00;98.90
21033;DHT22;10675;47.976;7.824;2023-03-31T16:36:34;11.90;99.10
21033;DHT22;10675;47.976;7.824;2023-03-31T16:39:00;11.90;99.10
21033;DHT22;10675;47.976;7.824;2023-03-31T16:41:33;12.00;98.80
21033;DHT22;10675;47.976;7.824;2023-03-31T16:43:59;12.00;98.70
21033;DHT22;10675;47.976;7.824;2023-03-31T16:46:26;11.70;98.20
21033;DHT22;10675;47.976;7.824;2023-03-31T16:48:51;12.00;99.40
21033;DHT22;10675;47.976;7.824;2023-03-31T16:51:18;11.90;98.80
21033;DHT22;10675;47.976;7.824;2023-03-31T16:53:44;11.90;98.80
21033;DHT22;10675;47.976;7.824;2023-03-31T16:56:11;11.90;99.20
21033;DHT22;10675;47.976;7.824;2023-03-31T16:58:38;11.90;99.20
21033;DHT22;10675;47.976;7.824;2023-03-31T17:01:05;11.90;99.10
21033;DHT22;10675;47.976;7.824;2023-03-31T17:03:32;11.90;99.10
21033;DHT22;10675;47.976;7.824;2023-03-31T17:06:04;11.90;98.90
21033;DHT22;10675;47.976;7.824;2023-03-31T17:08:30;11.90;99.20
21033;DHT22;10675;47.976;7.824;2023-03-31T17:11:08;11.90;99.40
21033;DHT22;10675;47.976;7.824;2023-03-31T17:13:36;12.60;97.90
21033;DHT22;10675;47.976;7.824;2023-03-31T17:16:01;12.50;97.90
21033;DHT22;10675;47.976;7.824;2023-03-31T17:18:27;12.20;97.70
21033;DHT22;10675;47.976;7.824;2023-03-31T17:20:53;12.40;97.90
21033;DHT22;10675;47.976;7.824;2023-03-31T17:23:21;12.40;98.10
21033;DHT22;10675;47.976;7.824;2023-03-31T17:25:52;12.30;98.20
21033;DHT22;10675;47.976;7.824;2023-03-31T17:28:17;12.20;98.70
21033;DHT22;10675;47.976;7.824;2023-03-31T17:30:44;12.20;98.90
21033;DHT22;10675;47.976;7.824;2023-03-31T17:33:13;12.10;99.20
21033;DHT22;10675;47.976;7.824;2023-03-31T17:35:38;12.10;99.10
21033;DHT22;10675;47.976;7.824;2023-03-31T17:38:04;12.00;99.70
21033;DHT22;10675;47.976;7.824;2023-03-31T17:40:30;12.00;99.70
21033;DHT22;10675;47.976;7.824;2023-03-31T17:43:00;12.00;99.10
21033;DHT22;10675;47.976;7.824;2023-03-31T17:45:27;12.00;98.90
21033;DHT22;10675;47.976;7.824;2023-03-31T17:47:54;12.00;99.40
21033;DHT22;10675;47.976;7.824;2023-03-31T17:50:19;12.00;99.30
21033;DHT22;10675;47.976;7.824;2023-03-31T17:52:45;12.00;99.50
21033;DHT22;10675;47.976;7.824;2023-03-31T17:55:10;12.00;99.70
21033;DHT22;10675;47.976;7.824;2023-03-31T17:57:36;11.90;99.90
21033;DHT22;10675;47.976;7.824;2023-03-31T18:00:05;11.80;99.90
21033;DHT22;10675;47.976;7.824;2023-03-31T18:02:38;11.60;99.90
21033;DHT22;10675;47.976;7.824;2023-03-31T18:05:05;11.60;99.90
21033;DHT22;10675;47.976;7.824;2023-03-31T18:07:32;11.50;99.90
21033;DHT22;10675;47.976;7.824;2023-03-31T18:09:58;11.40;99.90
21033;DHT22;10675;47.976;7.824;2023-03-31T18:12:24;11.40;99.90
21033;DHT22;10675;47.976;7.824;2023-03-31T18:14:50;11.40;99.90
21033;DHT22;10675;47.976;7.824;2023-03-31T18:17:16;11.50;99.90
21033;DHT22;10675;47.976;7.824;2023-03-31T18:19:43;11.50;99.90